createdAt,value
2022-11-09T00:01:15.700Z,1.55
2022-11-09T00:04:03.828Z,1.92
2022-11-09T00:06:49.575Z,1.23
2022-11-09T00:09:34.850Z,1.95
2022-11-09T00:12:20.207Z,1.92
2022-11-09T00:15:06.048Z,1.58
2022-11-09T00:17:51.423Z,1.98
2022-11-09T00:20:36.755Z,1.40
2022-11-09T00:23:23.267Z,1.45
2022-11-09T00:26:11.348Z,1.42
2022-11-09T00:28:57.094Z,0.90
2022-11-09T00:31:43.326Z,1.17
2022-11-09T00:34:28.935Z,1.33
2022-11-09T00:37:14.503Z,1.85
2022-11-09T00:40:00.799Z,1.73
2022-11-09T00:42:46.244Z,1.25
2022-11-09T00:45:34.762Z,1.35
2022-11-09T00:48:19.943Z,1.40
2022-11-09T00:51:06.059Z,1.13
2022-11-09T00:53:54.766Z,1.23
2022-11-09T00:56:40.822Z,1.20
2022-11-09T00:59:26.617Z,1.08
2022-11-09T01:02:11.948Z,0.98
2022-11-09T01:04:57.479Z,1.25
2022-11-09T01:07:44.452Z,1.60
2022-11-09T01:10:29.955Z,1.20
2022-11-09T01:13:17.889Z,1.10
2022-11-09T01:16:13.064Z,1.42
2022-11-09T01:18:59.075Z,1.40
2022-11-09T01:21:44.373Z,1.25
2022-11-09T01:24:29.794Z,0.77
2022-11-09T01:27:15.629Z,1.77
2022-11-09T01:30:01.164Z,1.05
2022-11-09T01:32:46.765Z,1.33
2022-11-09T01:35:38.039Z,0.82
2022-11-09T01:38:23.548Z,1.08
2022-11-09T01:41:15.894Z,1.48
2022-11-09T01:44:13.919Z,1.40
2022-11-09T01:47:19.852Z,1.00
2022-11-09T01:50:05.778Z,0.68
2022-11-09T01:52:51.211Z,0.70
2022-11-09T01:55:37.072Z,1.23
2022-11-09T01:58:28.002Z,0.90
2022-11-09T02:01:16.092Z,1.23
2022-11-09T02:04:12.870Z,1.00
2022-11-09T02:07:00.096Z,0.73
2022-11-09T02:09:53.895Z,1.15
2022-11-09T02:12:40.417Z,0.75
2022-11-09T02:15:27.431Z,0.90
2022-11-09T02:18:13.659Z,1.05
2022-11-09T02:20:59.199Z,1.35
2022-11-09T02:23:44.954Z,1.27
2022-11-09T02:26:44.501Z,1.02
2022-11-09T02:29:41.585Z,0.90
2022-11-09T02:32:29.619Z,1.15
2022-11-09T02:35:16.827Z,1.40
2022-11-09T02:38:02.133Z,0.77
2022-11-09T02:40:51.576Z,0.90
2022-11-09T02:43:37.740Z,1.38
2022-11-09T02:46:32.504Z,0.98
2022-11-09T02:49:18.121Z,0.95
2022-11-09T02:52:03.755Z,0.65
2022-11-09T02:54:49.518Z,1.13
2022-11-09T02:57:35.579Z,2.45
2022-11-09T03:00:22.048Z,1.38
2022-11-09T03:03:07.886Z,1.45
2022-11-09T03:05:53.172Z,0.95
2022-11-09T03:08:38.975Z,1.42
2022-11-09T03:11:24.317Z,1.05
2022-11-09T03:14:10.589Z,1.02
2022-11-09T03:16:58.303Z,1.63
2022-11-09T03:19:45.409Z,1.27
2022-11-09T03:22:31.800Z,1.52
2022-11-09T03:25:17.533Z,1.17
2022-11-09T03:28:07.347Z,1.20
2022-11-09T03:30:53.678Z,1.40
2022-11-09T03:33:39.017Z,1.40
2022-11-09T03:36:24.808Z,1.23
2022-11-09T03:39:10.803Z,0.70
2022-11-09T03:41:56.418Z,1.40
2022-11-09T03:44:44.119Z,1.05
2022-11-09T03:47:29.460Z,1.17
2022-11-09T03:50:16.790Z,1.13
2022-11-09T03:53:02.323Z,0.80
2022-11-09T03:55:47.693Z,1.38
2022-11-09T03:58:33.077Z,1.05
2022-11-09T04:01:18.560Z,0.93
2022-11-09T04:04:03.874Z,1.20
2022-11-09T04:06:49.263Z,1.50
2022-11-09T04:09:35.088Z,1.95
2022-11-09T04:12:20.578Z,1.10
2022-11-09T04:15:06.504Z,0.73
2022-11-09T04:17:59.037Z,1.10
2022-11-09T04:20:44.760Z,1.52
2022-11-09T04:23:30.334Z,0.80
2022-11-09T04:26:15.614Z,0.60
2022-11-09T04:29:01.051Z,2.38
2022-11-09T04:31:48.670Z,1.27
2022-11-09T04:34:34.467Z,1.40
2022-11-09T04:37:19.968Z,2.22
2022-11-09T04:40:06.198Z,0.73
2022-11-09T04:42:52.235Z,1.15
2022-11-09T04:45:37.820Z,0.93
2022-11-09T04:48:23.321Z,1.25
2022-11-09T04:51:10.675Z,1.17
2022-11-09T04:53:56.613Z,0.93
2022-11-09T04:56:42.349Z,0.90
2022-11-09T04:59:27.794Z,0.80
2022-11-09T05:02:13.183Z,0.80
2022-11-09T05:04:58.672Z,1.08
2022-11-09T05:07:43.951Z,0.88
2022-11-09T05:10:29.762Z,0.60
2022-11-09T05:13:15.683Z,0.75
2022-11-09T05:16:01.469Z,0.82
2022-11-09T05:18:47.525Z,0.77
2022-11-09T05:21:33.145Z,0.70
2022-11-09T05:24:18.654Z,0.50
2022-11-09T05:27:05.189Z,0.70
2022-11-09T05:29:50.595Z,0.65
2022-11-09T05:32:39.253Z,1.38
2022-11-09T05:35:24.911Z,0.73
2022-11-09T05:38:10.166Z,0.60
2022-11-09T05:40:55.574Z,0.50
2022-11-09T05:43:40.982Z,1.25
2022-11-09T05:46:27.113Z,0.40
2022-11-09T05:49:12.664Z,0.50
2022-11-09T05:51:57.985Z,0.65
2022-11-09T05:54:43.436Z,0.50
2022-11-09T05:57:29.448Z,0.82
2022-11-09T06:00:15.751Z,0.68
2022-11-09T06:03:11.622Z,1.00
2022-11-09T06:06:06.796Z,0.82
2022-11-09T06:08:53.422Z,1.00
2022-11-09T06:11:38.862Z,1.40
2022-11-09T06:14:24.191Z,1.10
2022-11-09T06:17:09.493Z,0.65
2022-11-09T06:19:54.845Z,0.65
2022-11-09T06:22:40.169Z,0.40
2022-11-09T06:25:26.168Z,0.80
2022-11-09T06:28:11.692Z,1.02
2022-11-09T06:30:59.076Z,0.63
2022-11-09T06:33:44.262Z,0.77
2022-11-09T06:36:29.970Z,0.73
2022-11-09T06:39:15.578Z,0.80
2022-11-09T06:42:01.250Z,0.75
2022-11-09T06:44:46.621Z,1.30
2022-11-09T06:47:32.006Z,0.70
2022-11-09T06:50:17.270Z,0.80
2022-11-09T06:53:06.547Z,0.65
2022-11-09T06:55:52.206Z,0.65
2022-11-09T06:58:37.978Z,0.63
2022-11-09T07:01:27.830Z,0.73
2022-11-09T07:04:14.816Z,1.25
2022-11-09T07:07:00.451Z,0.70
2022-11-09T07:09:45.953Z,1.15
2022-11-09T07:12:33.276Z,0.60
2022-11-09T07:15:18.971Z,0.77
2022-11-09T07:18:07.149Z,1.02
2022-11-09T07:20:53.114Z,1.20
2022-11-09T07:23:38.697Z,1.00
2022-11-09T07:26:24.082Z,1.33
2022-11-09T07:29:09.527Z,0.82
2022-11-09T07:31:55.856Z,1.20
2022-11-09T07:34:41.627Z,0.70
2022-11-09T07:37:27.044Z,0.90
2022-11-09T07:40:13.304Z,0.73
2022-11-09T07:43:03.329Z,0.70
2022-11-09T07:45:49.131Z,0.60
2022-11-09T07:48:34.716Z,0.70
2022-11-09T07:51:20.088Z,1.00
2022-11-09T07:54:05.252Z,0.70
2022-11-09T07:56:50.602Z,1.02
2022-11-09T07:59:35.979Z,0.80
2022-11-09T08:02:21.770Z,0.88
2022-11-09T08:05:07.702Z,0.82
2022-11-09T08:08:00.689Z,0.90
2022-11-09T08:10:51.503Z,0.60
2022-11-09T08:13:37.172Z,1.00
2022-11-09T08:16:22.793Z,0.43
2022-11-09T08:19:10.437Z,0.50
2022-11-09T08:21:57.960Z,0.40
2022-11-09T08:24:43.471Z,0.32
2022-11-09T08:27:30.825Z,0.30
2022-11-09T08:30:20.255Z,0.68
2022-11-09T08:33:06.256Z,0.75
2022-11-09T08:35:53.359Z,0.38
2022-11-09T08:38:39.603Z,0.70
2022-11-09T08:41:24.910Z,0.45
2022-11-09T08:44:10.290Z,0.95
2022-11-09T08:46:55.757Z,0.90
2022-11-09T08:49:41.140Z,0.50
2022-11-09T08:52:26.291Z,0.90
2022-11-09T08:55:11.749Z,0.45
2022-11-09T08:57:59.516Z,0.73
2022-11-09T09:00:45.041Z,1.10
2022-11-09T09:03:30.394Z,0.65
2022-11-09T09:06:15.848Z,0.65
2022-11-09T09:09:01.598Z,0.32
2022-11-09T09:11:47.155Z,0.70
2022-11-09T09:14:33.238Z,0.70
2022-11-09T09:17:18.690Z,0.75
2022-11-09T09:20:05.759Z,0.40
2022-11-09T09:22:51.066Z,0.40
2022-11-09T09:25:36.482Z,0.40
2022-11-09T09:28:22.153Z,0.30
2022-11-09T09:31:08.219Z,0.60
2022-11-09T09:33:53.629Z,0.40
2022-11-09T09:36:43.405Z,0.47
2022-11-09T09:39:33.051Z,0.47
2022-11-09T09:42:28.356Z,0.43
2022-11-09T09:45:22.655Z,0.50
2022-11-09T09:48:30.017Z,0.77
2022-11-09T09:51:29.580Z,1.23
2022-11-09T09:54:30.395Z,0.70
2022-11-09T09:57:22.490Z,0.32
2022-11-09T10:00:15.937Z,1.30
2022-11-09T10:03:02.237Z,0.60
2022-11-09T10:05:57.067Z,0.60
2022-11-09T10:08:58.299Z,1.00
2022-11-09T10:11:55.323Z,0.93
2022-11-09T10:15:07.042Z,0.65
2022-11-09T10:17:58.740Z,0.75
2022-11-09T10:21:00.985Z,0.70
2022-11-09T10:24:07.747Z,0.60
2022-11-09T10:26:56.894Z,0.90
2022-11-09T10:29:47.768Z,0.60
2022-11-09T10:32:33.347Z,1.35
2022-11-09T10:35:22.436Z,0.77
2022-11-09T10:38:14.077Z,0.65
2022-11-09T10:41:04.679Z,0.65
2022-11-09T10:44:17.495Z,0.65
2022-11-09T10:47:22.999Z,0.98
2022-11-09T10:50:35.708Z,0.77
2022-11-09T10:53:39.906Z,0.57
2022-11-09T10:57:05.707Z,1.02
2022-11-09T11:00:16.693Z,1.38
2022-11-09T11:03:24.886Z,0.85
2022-11-09T11:06:31.739Z,0.70
2022-11-09T11:09:36.709Z,1.10
2022-11-09T11:12:51.294Z,0.68
2022-11-09T11:15:55.925Z,0.68
2022-11-09T11:19:00.519Z,1.42
2022-11-09T11:22:20.528Z,1.60
2022-11-09T11:25:25.212Z,1.05
2022-11-09T11:28:41.426Z,1.40
2022-11-09T11:31:45.666Z,0.80
2022-11-09T11:35:05.751Z,1.05
2022-11-09T11:38:22.481Z,0.90
2022-11-09T11:42:01.770Z,1.13
2022-11-09T11:45:41.445Z,1.02
2022-11-09T11:48:58.963Z,1.10
2022-11-09T11:52:34.519Z,1.38
2022-11-09T11:56:04.743Z,1.27
2022-11-09T11:59:48.239Z,0.52
2022-11-09T12:06:33.010Z,0.85
2022-11-09T12:09:57.318Z,1.65
2022-11-09T12:13:27.515Z,0.80
2022-11-09T12:16:55.169Z,1.02
2022-11-09T12:20:24.283Z,0.77
2022-11-09T12:24:07.363Z,0.77
2022-11-09T12:30:40.777Z,0.85
2022-11-09T12:34:00.302Z,1.45
2022-11-09T12:37:12.970Z,1.60
2022-11-09T12:44:25.043Z,0.82
2022-11-09T12:47:35.352Z,1.02
2022-11-09T12:50:40.441Z,1.13
2022-11-09T12:53:45.159Z,1.17
2022-11-09T12:56:58.235Z,0.98
2022-11-09T13:00:02.775Z,0.80
2022-11-09T13:03:19.098Z,0.93
2022-11-09T13:06:26.800Z,0.85
2022-11-09T13:09:43.858Z,1.42
2022-11-09T13:12:49.296Z,0.68
2022-11-09T13:16:09.492Z,0.90
2022-11-09T13:19:33.898Z,0.90
2022-11-09T13:22:38.710Z,1.42
2022-11-09T13:25:44.349Z,0.88
2022-11-09T13:29:07.537Z,0.80
2022-11-09T13:32:11.837Z,0.73
2022-11-09T13:35:45.336Z,1.10
2022-11-09T13:39:29.638Z,1.23
2022-11-09T13:42:36.133Z,0.85
2022-11-09T13:45:48.609Z,1.08
2022-11-09T13:48:54.300Z,0.70
2022-11-09T13:51:58.415Z,1.77
2022-11-09T13:55:03.350Z,1.33
2022-11-09T13:58:21.210Z,1.27
2022-11-09T14:01:45.848Z,0.90
2022-11-09T14:04:50.106Z,1.08
2022-11-09T14:07:56.072Z,0.60
2022-11-09T14:11:13.269Z,1.63
2022-11-09T14:14:58.685Z,0.57
2022-11-09T14:18:12.608Z,0.85
2022-11-09T14:21:52.341Z,0.40
2022-11-09T14:24:56.538Z,0.57
2022-11-09T14:28:01.073Z,0.70
2022-11-09T14:31:05.306Z,0.80
2022-11-09T14:34:16.670Z,0.77
2022-11-09T14:37:21.568Z,1.00
2022-11-09T14:40:33.055Z,1.73
2022-11-09T14:43:44.329Z,0.98
2022-11-09T14:46:53.275Z,1.02
2022-11-09T14:49:58.848Z,0.63
2022-11-09T14:53:05.062Z,1.60
2022-11-09T14:56:13.989Z,0.77
2022-11-09T14:59:32.455Z,0.93
2022-11-09T15:02:39.379Z,0.57
2022-11-09T15:05:43.666Z,0.93
2022-11-09T15:08:56.410Z,0.68
2022-11-09T15:12:01.816Z,1.10
2022-11-09T15:15:07.686Z,1.20
2022-11-09T15:18:21.368Z,0.70
2022-11-09T15:21:25.984Z,1.02
2022-11-09T15:24:46.497Z,0.85
2022-11-09T15:28:00.570Z,1.42
2022-11-09T15:31:16.196Z,1.13
2022-11-09T15:34:27.029Z,0.80
2022-11-09T15:37:49.197Z,1.58
2022-11-09T15:40:53.616Z,0.80
2022-11-09T15:43:58.534Z,1.73
2022-11-09T15:47:04.107Z,1.58
2022-11-09T15:50:17.998Z,1.92
2022-11-09T15:53:23.301Z,1.77
2022-11-09T15:56:27.836Z,1.65
2022-11-09T15:59:32.104Z,1.35
2022-11-09T16:02:36.403Z,1.42
2022-11-09T16:05:40.801Z,1.45
2022-11-09T16:08:49.382Z,1.73
2022-11-09T16:11:54.259Z,2.10
2022-11-09T16:14:58.890Z,1.30
2022-11-09T16:18:04.356Z,1.65
2022-11-09T16:21:10.387Z,1.02
2022-11-09T16:24:16.772Z,1.85
2022-11-09T16:27:48.514Z,1.48
2022-11-09T16:30:47.043Z,1.55
2022-11-09T16:33:51.295Z,1.50
2022-11-09T16:36:57.119Z,1.35
2022-11-09T16:40:05.808Z,1.70
2022-11-09T16:43:10.322Z,1.40
2022-11-09T16:46:22.265Z,1.75
2022-11-09T16:49:26.624Z,1.55
2022-11-09T16:52:31.350Z,1.70
2022-11-09T16:55:35.770Z,1.20
2022-11-09T16:58:39.945Z,1.65
2022-11-09T17:01:53.700Z,2.58
2022-11-09T17:04:57.996Z,6.13
2022-11-09T17:08:01.859Z,8.80
2022-11-09T17:11:14.929Z,5.22
2022-11-09T17:14:19.328Z,3.67
2022-11-09T17:17:23.663Z,3.45
2022-11-09T17:20:28.026Z,2.78
2022-11-09T17:23:33.913Z,6.22
2022-11-09T17:26:38.013Z,4.85
2022-11-09T17:29:42.323Z,8.07
2022-11-09T17:32:48.136Z,5.25
2022-11-09T17:36:04.427Z,3.00
2022-11-09T17:39:08.761Z,2.90
2022-11-09T17:42:12.912Z,4.60
2022-11-09T17:45:17.115Z,4.18
2022-11-09T17:48:21.808Z,2.80
2022-11-09T17:51:26.667Z,2.10
2022-11-09T17:54:36.445Z,2.45
2022-11-09T17:57:41.389Z,2.45
2022-11-09T18:00:46.501Z,3.22
2022-11-09T18:03:50.668Z,2.13
2022-11-09T18:06:55.006Z,1.90
2022-11-09T18:09:59.058Z,3.10
2022-11-09T18:13:04.221Z,1.95
2022-11-09T18:16:17.137Z,2.00
2022-11-09T18:19:21.892Z,1.83
2022-11-09T18:22:25.988Z,3.85
2022-11-09T18:25:31.326Z,3.92
2022-11-09T18:28:36.509Z,3.65
2022-11-09T18:31:42.267Z,2.97
2022-11-09T18:34:46.371Z,5.13
2022-11-09T18:37:50.502Z,3.90
2022-11-09T18:41:03.825Z,3.50
2022-11-09T18:44:09.582Z,3.20
2022-11-09T18:47:15.187Z,3.45
2022-11-09T18:50:19.829Z,4.63
2022-11-09T18:53:28.284Z,3.80
2022-11-09T18:56:32.584Z,7.03
2022-11-09T18:59:40.108Z,7.10
2022-11-09T19:02:44.159Z,4.25
2022-11-09T19:05:48.550Z,4.22
2022-11-09T19:09:11.043Z,4.93
2022-11-09T19:12:15.838Z,3.35
2022-11-09T19:15:20.365Z,3.55
2022-11-09T19:18:24.565Z,2.95
2022-11-09T19:22:01.546Z,4.07
2022-11-09T19:25:06.478Z,2.10
2022-11-09T19:28:10.715Z,1.73
2022-11-09T19:31:17.785Z,2.83
2022-11-09T19:34:22.590Z,2.83
2022-11-09T19:37:27.020Z,2.33
2022-11-09T19:40:36.899Z,2.70
2022-11-09T19:43:43.991Z,2.08
2022-11-09T19:46:48.482Z,2.47
2022-11-09T19:49:53.253Z,1.70
2022-11-09T19:52:57.369Z,2.05
2022-11-09T19:56:04.687Z,2.22
2022-11-09T19:59:13.418Z,2.40
2022-11-09T20:02:17.907Z,1.50
2022-11-09T20:05:22.267Z,2.58
2022-11-09T20:08:26.373Z,1.30
2022-11-09T20:11:49.169Z,1.58
2022-11-09T20:14:53.778Z,1.58
2022-11-09T20:17:58.228Z,1.10
2022-11-09T20:21:03.927Z,3.10
2022-11-09T20:24:08.894Z,5.68
2022-11-09T20:27:13.065Z,12.18
2022-11-09T20:30:17.714Z,9.32
2022-11-09T20:33:22.116Z,6.18
2022-11-09T20:36:26.750Z,6.72
2022-11-09T20:39:31.177Z,3.22
2022-11-09T20:42:36.265Z,1.42
2022-11-09T20:45:41.087Z,1.70
2022-11-09T20:48:55.020Z,2.83
2022-11-09T20:51:59.981Z,2.80
2022-11-09T20:55:04.570Z,2.15
2022-11-09T20:58:14.053Z,1.13
2022-11-09T21:01:21.437Z,1.55
2022-11-09T21:04:26.048Z,1.60
2022-11-09T21:07:30.195Z,1.40
2022-11-09T21:10:35.540Z,0.98
2022-11-09T21:13:44.235Z,1.55
2022-11-09T21:16:48.636Z,1.23
2022-11-09T21:19:53.067Z,1.50
2022-11-09T21:23:12.358Z,1.00
2022-11-09T21:26:46.127Z,0.90
2022-11-09T21:29:50.522Z,1.23
2022-11-09T21:32:55.070Z,1.23
2022-11-09T21:36:05.612Z,1.10
2022-11-09T21:39:10.943Z,0.95
2022-11-09T21:42:15.134Z,1.25
2022-11-09T21:45:19.757Z,1.55
2022-11-09T21:48:23.936Z,1.50
2022-11-09T21:51:28.471Z,1.75
2022-11-09T21:54:33.016Z,1.20
2022-11-09T21:57:37.220Z,0.98
2022-11-09T22:00:41.337Z,1.25
2022-11-09T22:03:46.167Z,1.65
2022-11-09T22:06:50.587Z,1.20
2022-11-09T22:10:11.343Z,1.35
2022-11-09T22:13:34.985Z,1.40
2022-11-09T22:16:39.347Z,1.15
2022-11-09T22:20:02.708Z,1.50
2022-11-09T22:23:07.994Z,2.30
2022-11-09T22:26:12.308Z,1.00
2022-11-09T22:29:17.110Z,1.00
2022-11-09T22:32:22.044Z,1.42
2022-11-09T22:35:26.108Z,0.80
2022-11-09T22:38:34.726Z,0.88
2022-11-09T22:41:39.728Z,1.02
2022-11-09T22:44:43.656Z,0.90
2022-11-09T22:47:47.814Z,0.77
2022-11-09T22:50:51.947Z,1.17
2022-11-09T22:53:56.222Z,1.15
2022-11-09T22:57:00.345Z,0.90
2022-11-09T23:00:04.990Z,0.70
2022-11-09T23:03:09.203Z,1.10
2022-11-09T23:06:16.232Z,1.00
2022-11-09T23:09:20.791Z,1.08
2022-11-09T23:12:24.983Z,0.70
2022-11-09T23:15:29.826Z,0.95
2022-11-09T23:18:52.927Z,1.25
2022-11-09T23:21:57.352Z,0.85
2022-11-09T23:25:20.170Z,0.98
2022-11-09T23:28:25.206Z,0.60
2022-11-09T23:31:29.632Z,0.70
2022-11-09T23:34:34.103Z,0.88
2022-11-09T23:37:38.308Z,0.80
2022-11-09T23:40:42.198Z,0.98
2022-11-09T23:43:49.624Z,0.75
2022-11-09T23:46:54.492Z,0.90
2022-11-09T23:49:58.932Z,1.00
2022-11-09T23:53:03.105Z,0.73
2022-11-09T23:56:09.853Z,1.00
2022-11-09T23:59:13.839Z,0.90
